Aérodrome :







RETROUVEZ-NOUS SUR...

 
LOGIN :

S'inscrire | Disclaimer

   EN    FR    IT 

 









Légende :    VFR   VFR Marginal   IFR   IFR Intensif   IFR Très Intensif
Visi : 
Plafond : 
>= 8 km
>= 3000ft
5 à 8 km
1000 à 3000 ft
1500m à 5 km
500 à 1000 ft
800 à 1500m
200 à 500 ft
< 800m
< 200 ft
Symboles :   Orages  Brouillard  Fortes neiges  Fortes précipitations  Vent > 20 kt






- Altitude de l'aérodrome : 270 ft
- Code IATA : YMX


CYMX - Montreal International Mirabel

DERNIER METAR :
  • 260815Z VRB02KT 4SM -SN OVC004 M00/M00 A2967 RMK SC8 SLP054

METARs EXPIRÉS :
  • 260717Z 05004KT 010V090 4SM -SN OVC004 M00/M00 A2969 RMK ST8 SLP060
  • 260700Z 04004KT 360V110 2SM -DZ VV003 M00/M01 A2970 RMK SN8 SLP062
  • 260629Z 05004KT 010V090 1SM R06/P6000FT/N R11/P6000FT/N -SN VV003 M00/M01 A2970 RMK SN8 SLP064
  • 260600Z 05005KT 020V080 2SM -SN VV004 M00/M01 A2972 RMK SN8 /S05/ SLP068

TAF AMD TAF CYMX
Valide du 26 à 07h jusqu'au 27 à 06h UTC


260716Z 2607/2706 04005KT 3/4SM -DZ BR VV003
TEMPO 2607/2609 2SM -SN OVC005
PROB40 2607/2609 3/4SM -FZDZ BR VV003
FM260900 05005KT 1SM -SN BR OVC003
PROB40 2609/2611 1SM -FZDZ BR VV003
FM261100 25005KT 1SM -SN BR OVC003
PROB40 2611/2614 1SM -FZDZ BR VV003
FM261400 23005KT 3SM -SNRA BR OVC006
BECMG 2616/2618 24008KT RMK NXT FCST BY 261200Z



MET'MAP, la Météo Aéronautique d'un coup d'oeil ! - Copyright ORBIFLY Décembre 2007 - Disclaimer

ORBIFLY MET'MAP TEAM :

Programmation & Développement : Alexandra Zaïnal
Sur une idée originale de : Baudouin d'Aumeries
Assistance à la programmation : Marc-Olivier Méhu
Soutien technique & logistique : Manuel Goepfert

Contact : metmap@orbifly.com




SOURCES & CREDITS :

   NOAA